createdAt,value
2019-02-08T00:00:41.557Z,29.50
2019-02-08T00:01:41.586Z,28.50
2019-02-08T00:02:41.602Z,34.90
2019-02-08T00:03:41.632Z,37.10
2019-02-08T00:04:41.654Z,36.40
2019-02-08T00:05:41.696Z,35.70
2019-02-08T00:06:41.704Z,29.80
2019-02-08T00:07:41.730Z,29.10
2019-02-08T00:08:41.755Z,30.00
2019-02-08T00:09:41.780Z,33.10
2019-02-08T00:10:41.805Z,28.40
2019-02-08T00:11:41.831Z,31.40
2019-02-08T00:12:41.859Z,36.20
2019-02-08T00:13:41.881Z,34.10
2019-02-08T00:14:41.908Z,31.50
2019-02-08T00:15:41.933Z,69.90
2019-02-08T00:16:41.959Z,39.80
2019-02-08T00:17:41.984Z,48.10
2019-02-08T00:18:42.020Z,35.30
2019-02-08T00:19:42.043Z,25.50
2019-02-08T00:20:42.063Z,27.60
2019-02-08T00:21:42.090Z,27.90
2019-02-08T00:22:42.113Z,20.80
2019-02-08T00:23:42.153Z,17.90
2019-02-08T00:24:42.170Z,31.00
2019-02-08T00:25:42.193Z,23.20
2019-02-08T00:26:42.217Z,21.10
2019-02-08T00:27:42.243Z,23.30
2019-02-08T00:28:42.270Z,21.80
2019-02-08T00:29:42.348Z,27.10
2019-02-08T00:30:42.326Z,19.60
2019-02-08T00:31:42.349Z,24.00
2019-02-08T00:32:42.372Z,24.10
2019-02-08T00:33:42.399Z,28.70
2019-02-08T00:34:42.424Z,22.10
2019-02-08T00:35:42.451Z,28.20
2019-02-08T00:36:42.477Z,30.30
2019-02-08T00:37:42.503Z,27.00
2019-02-08T00:38:42.528Z,25.30
2019-02-08T00:39:42.556Z,25.20
2019-02-08T00:40:42.581Z,19.40
2019-02-08T00:41:42.606Z,18.00
2019-02-08T00:42:42.633Z,17.70
2019-02-08T00:43:42.659Z,19.50
2019-02-08T00:44:42.685Z,19.90
2019-02-08T00:45:42.711Z,20.10
2019-02-08T00:46:42.736Z,20.30
2019-02-08T00:47:42.762Z,20.30
2019-02-08T00:48:42.790Z,21.40
2019-02-08T00:49:42.814Z,17.50
2019-02-08T00:50:42.841Z,25.90
2019-02-08T00:51:42.867Z,18.10
2019-02-08T00:52:42.896Z,15.60
2019-02-08T00:53:42.921Z,23.50
2019-02-08T00:54:42.946Z,25.30
2019-02-08T00:55:42.974Z,28.00
2019-02-08T00:56:43.000Z,29.40
2019-02-08T00:57:43.026Z,23.20
2019-02-08T00:58:43.052Z,21.90
2019-02-08T00:59:43.080Z,22.40
2019-02-08T01:00:43.104Z,22.10
2019-02-08T01:01:43.129Z,30.40
2019-02-08T01:02:43.156Z,42.80
2019-02-08T01:03:43.186Z,30.20
2019-02-08T01:04:43.213Z,30.70
2019-02-08T01:05:43.234Z,35.60
2019-02-08T01:06:43.261Z,27.70
2019-02-08T01:07:43.288Z,27.50
2019-02-08T01:08:43.315Z,23.00
2019-02-08T01:09:43.339Z,29.70
2019-02-08T01:10:43.366Z,28.20
2019-02-08T01:11:43.443Z,24.60
2019-02-08T01:12:43.420Z,26.20
2019-02-08T01:13:43.445Z,22.00
2019-02-08T01:14:43.472Z,28.10
2019-02-08T01:15:43.500Z,28.10
2019-02-08T01:16:43.525Z,28.60
2019-02-08T01:17:43.551Z,27.30
2019-02-08T01:18:43.578Z,25.90
2019-02-08T01:19:43.605Z,23.70
2019-02-08T01:20:43.632Z,26.60
2019-02-08T01:21:43.657Z,17.30
2019-02-08T01:22:43.683Z,18.00
2019-02-08T01:23:43.709Z,21.70
2019-02-08T01:24:43.736Z,21.70
2019-02-08T01:25:43.763Z,20.60
2019-02-08T01:26:43.788Z,16.50
2019-02-08T01:27:43.818Z,19.50
2019-02-08T01:28:43.841Z,98.80
2019-02-08T01:29:43.867Z,96.60
2019-02-08T01:30:43.893Z,21.90
2019-02-08T01:31:43.920Z,23.30
2019-02-08T01:32:43.946Z,13.10
2019-02-08T01:33:43.975Z,15.00
2019-02-08T01:34:44.005Z,17.90
2019-02-08T01:35:44.026Z,20.30
2019-02-08T01:36:44.050Z,18.10
2019-02-08T01:37:44.076Z,14.60
2019-02-08T01:38:44.103Z,14.10
2019-02-08T01:39:44.131Z,14.00
2019-02-08T01:40:44.155Z,14.00
2019-02-08T01:41:44.180Z,19.70
2019-02-08T01:42:44.207Z,19.60
2019-02-08T01:43:44.242Z,13.10
2019-02-08T01:44:44.260Z,23.00
2019-02-08T01:45:44.285Z,17.00
2019-02-08T01:46:44.311Z,21.20
2019-02-08T01:47:46.843Z,19.90
2019-02-08T01:48:44.363Z,37.10
2019-02-08T01:49:44.389Z,20.90
2019-02-08T01:50:44.415Z,19.50
2019-02-08T01:51:44.442Z,24.00
2019-02-08T01:52:44.469Z,19.70
2019-02-08T01:53:48.774Z,27.00
2019-02-08T01:54:44.519Z,27.30
2019-02-08T01:55:44.545Z,22.90
2019-02-08T01:56:44.571Z,25.00
2019-02-08T01:57:44.597Z,28.40
2019-02-08T01:58:44.624Z,27.30
2019-02-08T01:59:44.650Z,20.60
2019-02-08T02:00:44.678Z,20.00
2019-02-08T02:01:44.701Z,23.50
2019-02-08T02:02:44.726Z,20.30
2019-02-08T02:03:44.751Z,28.80
2019-02-08T02:04:44.780Z,16.10
2019-02-08T02:05:44.803Z,12.50
2019-02-08T02:06:44.830Z,15.90
2019-02-08T02:07:44.857Z,22.40
2019-02-08T02:08:44.887Z,15.90
2019-02-08T02:09:44.906Z,21.70
2019-02-08T02:10:44.973Z,15.30
2019-02-08T02:11:44.959Z,15.70
2019-02-08T02:12:44.986Z,16.40
2019-02-08T02:13:45.011Z,19.10
2019-02-08T02:14:45.036Z,16.60
2019-02-08T02:15:45.063Z,10.60
2019-02-08T02:16:45.088Z,16.30
2019-02-08T02:17:45.112Z,25.70
2019-02-08T02:18:45.184Z,15.70
2019-02-08T02:19:45.170Z,10.70
2019-02-08T02:20:45.195Z,20.60
2019-02-08T02:21:45.217Z,28.40
2019-02-08T02:22:45.243Z,15.60
2019-02-08T02:23:45.281Z,19.70
2019-02-08T02:24:45.297Z,18.50
2019-02-08T02:25:45.371Z,17.90
2019-02-08T02:26:45.346Z,21.10
2019-02-08T02:27:45.373Z,17.60
2019-02-08T02:28:45.399Z,22.80
2019-02-08T02:29:45.424Z,18.00
2019-02-08T02:30:45.451Z,12.30
2019-02-08T02:31:45.476Z,18.30
2019-02-08T02:32:45.509Z,9.60
2019-02-08T02:33:45.527Z,16.80
2019-02-08T02:34:45.555Z,24.60
2019-02-08T02:35:45.585Z,17.70
2019-02-08T02:36:45.607Z,18.50
2019-02-08T02:37:45.631Z,24.10
2019-02-08T02:38:45.659Z,13.40
2019-02-08T02:39:45.684Z,13.60
2019-02-08T02:40:45.710Z,12.30
2019-02-08T02:41:45.743Z,12.80
2019-02-08T02:42:45.763Z,13.70
2019-02-08T02:43:45.788Z,10.80
2019-02-08T02:44:45.814Z,12.50
2019-02-08T02:45:45.839Z,11.60
2019-02-08T02:46:45.866Z,11.10
2019-02-08T02:47:45.901Z,17.70
2019-02-08T02:48:45.922Z,12.60
2019-02-08T02:49:45.943Z,10.50
2019-02-08T02:50:45.970Z,13.30
2019-02-08T02:51:45.996Z,17.60
2019-02-08T02:52:46.022Z,10.60
2019-02-08T02:53:46.047Z,24.60
2019-02-08T02:54:46.073Z,18.70
2019-02-08T02:55:46.100Z,21.30
2019-02-08T02:56:46.126Z,14.70
2019-02-08T02:57:46.151Z,14.70
2019-02-08T02:58:46.178Z,13.40
2019-02-08T02:59:46.204Z,19.30
2019-02-08T03:00:46.231Z,13.50
2019-02-08T03:01:46.257Z,16.90
2019-02-08T03:02:46.282Z,12.50
2019-02-08T03:03:46.308Z,14.30
2019-02-08T03:04:46.336Z,14.60
2019-02-08T03:05:46.362Z,18.30
2019-02-08T03:06:46.387Z,12.40
2019-02-08T03:07:46.447Z,16.00
2019-02-08T03:08:46.438Z,24.20
2019-02-08T03:09:46.464Z,15.60
2019-02-08T03:10:46.491Z,17.00
2019-02-08T03:11:46.516Z,14.60
2019-02-08T03:12:46.542Z,12.70
2019-02-08T03:13:46.569Z,23.60
2019-02-08T03:14:46.593Z,22.50
2019-02-08T03:15:46.640Z,13.20
2019-02-08T03:16:46.647Z,15.00
2019-02-08T03:17:46.672Z,18.90
2019-02-08T03:18:46.698Z,10.70
2019-02-08T03:19:46.723Z,13.10
2019-02-08T03:20:46.753Z,16.60
2019-02-08T03:21:46.778Z,14.40
2019-02-08T03:22:46.803Z,14.00
2019-02-08T03:23:46.829Z,12.50
2019-02-08T03:24:46.854Z,13.80
2019-02-08T03:25:46.880Z,12.80
2019-02-08T03:26:46.905Z,11.80
2019-02-08T03:27:46.934Z,13.40
2019-02-08T03:28:46.958Z,19.70
2019-02-08T03:29:46.985Z,20.20
2019-02-08T03:30:47.019Z,15.10
2019-02-08T03:31:47.037Z,13.60
2019-02-08T03:32:47.065Z,14.80
2019-02-08T03:33:47.088Z,14.50
2019-02-08T03:34:47.114Z,14.20
2019-02-08T03:35:47.141Z,26.40
2019-02-08T03:36:47.167Z,18.70
2019-02-08T03:37:47.193Z,19.50
2019-02-08T03:38:47.218Z,21.60
2019-02-08T03:39:47.243Z,20.90
2019-02-08T03:40:47.269Z,24.50
2019-02-08T03:41:47.294Z,21.40
2019-02-08T03:42:47.320Z,20.80
2019-02-08T03:43:47.348Z,15.70
2019-02-08T03:44:47.375Z,19.70
2019-02-08T03:45:47.398Z,17.60
2019-02-08T03:46:47.425Z,21.60
2019-02-08T03:47:47.450Z,21.80
2019-02-08T03:48:47.476Z,20.70
2019-02-08T03:49:47.502Z,17.30
2019-02-08T03:50:47.543Z,14.40
2019-02-08T03:51:47.557Z,16.30
2019-02-08T03:52:47.579Z,23.50
2019-02-08T03:53:47.604Z,30.00
2019-02-08T03:54:47.629Z,21.00
2019-02-08T03:55:47.656Z,20.20
2019-02-08T03:56:47.683Z,33.10
2019-02-08T03:57:47.707Z,15.80
2019-02-08T03:58:47.734Z,17.10
2019-02-08T03:59:47.757Z,36.60
2019-02-08T04:00:47.783Z,29.70
2019-02-08T04:01:47.808Z,29.80
2019-02-08T04:02:47.834Z,18.50
2019-02-08T04:03:47.862Z,19.90
2019-02-08T04:04:47.886Z,22.70
2019-02-08T04:05:47.933Z,19.80
2019-02-08T04:06:47.936Z,26.40
2019-02-08T04:07:47.960Z,15.00
2019-02-08T04:08:47.998Z,26.80
2019-02-08T04:09:48.012Z,17.20
2019-02-08T04:10:48.039Z,17.60
2019-02-08T04:11:48.066Z,25.20
2019-02-08T04:12:48.139Z,20.80
2019-02-08T04:13:48.113Z,23.10
2019-02-08T04:14:48.139Z,22.60
2019-02-08T04:15:48.166Z,20.80
2019-02-08T04:16:48.190Z,14.70
2019-02-08T04:17:48.214Z,14.60
2019-02-08T04:18:48.241Z,17.70
2019-02-08T04:19:48.267Z,19.00
2019-02-08T04:20:48.292Z,18.40
2019-02-08T04:21:48.367Z,12.10
2019-02-08T04:22:48.350Z,16.80
2019-02-08T04:23:48.367Z,18.40
2019-02-08T04:24:48.393Z,26.10
2019-02-08T04:25:48.418Z,12.90
2019-02-08T04:26:48.442Z,16.40
2019-02-08T04:27:48.468Z,24.00
2019-02-08T04:28:48.493Z,29.30
2019-02-08T04:29:48.517Z,25.70
2019-02-08T04:30:48.543Z,21.00
2019-02-08T04:31:48.568Z,21.50
2019-02-08T04:32:48.596Z,26.50
2019-02-08T04:33:48.630Z,17.60
2019-02-08T04:34:48.647Z,19.90
2019-02-08T04:35:48.669Z,20.20
2019-02-08T04:36:48.693Z,11.80
2019-02-08T04:37:48.718Z,15.30
2019-02-08T04:38:48.746Z,13.60
2019-02-08T04:39:48.769Z,20.10
2019-02-08T04:40:48.833Z,28.70
2019-02-08T04:41:48.819Z,20.00
2019-02-08T04:42:48.843Z,23.40
2019-02-08T04:43:48.868Z,22.30
2019-02-08T04:44:48.894Z,14.60
2019-02-08T04:45:48.919Z,16.40
2019-02-08T04:46:48.943Z,12.90
2019-02-08T04:47:48.969Z,33.20
2019-02-08T04:48:49.002Z,9.30
2019-02-08T04:49:49.018Z,22.70
2019-02-08T04:50:49.042Z,48.90
2019-02-08T04:51:49.067Z,54.30
2019-02-08T04:52:49.095Z,17.30
2019-02-08T04:53:49.116Z,13.80
2019-02-08T04:54:49.145Z,14.80
2019-02-08T04:55:49.166Z,17.00
2019-02-08T04:56:49.191Z,14.60
2019-02-08T04:57:49.215Z,18.40
2019-02-08T04:58:49.240Z,16.20
2019-02-08T04:59:49.265Z,13.70
2019-02-08T05:00:49.290Z,12.60
2019-02-08T05:01:49.314Z,14.40
2019-02-08T05:02:49.338Z,23.60
2019-02-08T05:03:49.366Z,24.50
2019-02-08T05:04:49.389Z,15.30
2019-02-08T05:05:49.413Z,13.20
2019-02-08T05:06:49.437Z,19.20
2019-02-08T05:07:49.462Z,19.60
2019-02-08T05:08:49.489Z,10.60
2019-02-08T05:09:49.511Z,18.20
2019-02-08T05:10:49.538Z,17.20
2019-02-08T05:11:49.562Z,14.90
2019-02-08T05:12:49.594Z,13.70
2019-02-08T05:13:49.610Z,38.60
2019-02-08T05:14:49.634Z,10.10
2019-02-08T05:15:49.660Z,29.20
2019-02-08T05:16:49.683Z,16.60
2019-02-08T05:17:49.708Z,31.10
2019-02-08T05:18:49.733Z,20.40
2019-02-08T05:19:49.763Z,17.50
2019-02-08T05:20:49.782Z,15.50
2019-02-08T05:21:49.806Z,22.10
2019-02-08T05:22:49.830Z,14.70
2019-02-08T05:23:49.856Z,16.30
2019-02-08T05:24:49.888Z,13.20
2019-02-08T05:25:49.905Z,14.20
2019-02-08T05:26:49.929Z,22.40
2019-02-08T05:27:52.360Z,17.80
2019-02-08T05:28:49.983Z,35.10
2019-02-08T05:29:50.002Z,22.50
2019-02-08T05:30:50.029Z,18.90
2019-02-08T05:31:50.053Z,21.70
2019-02-08T05:32:50.078Z,20.50
2019-02-08T05:33:51.647Z,15.90
2019-02-08T05:34:50.124Z,14.50
2019-02-08T05:35:50.150Z,16.30
2019-02-08T05:36:50.174Z,20.20
2019-02-08T05:37:50.199Z,21.50
2019-02-08T05:38:50.229Z,19.80
2019-02-08T05:39:50.249Z,17.40
2019-02-08T05:40:50.273Z,12.80
2019-02-08T05:41:50.297Z,6.40
2019-02-08T05:42:50.321Z,17.80
2019-02-08T05:43:50.349Z,12.60
2019-02-08T05:44:50.372Z,17.60
2019-02-08T05:45:50.397Z,19.30
2019-02-08T05:46:50.436Z,11.80
2019-02-08T05:47:50.449Z,10.00
2019-02-08T05:48:50.471Z,18.80
2019-02-08T05:49:50.495Z,10.80
2019-02-08T05:50:50.519Z,13.60
2019-02-08T05:51:50.544Z,20.40
2019-02-08T05:52:50.572Z,19.10
2019-02-08T05:53:50.594Z,15.20
2019-02-08T05:54:54.361Z,17.90
2019-02-08T05:55:50.643Z,13.80
2019-02-08T05:56:50.671Z,20.30
2019-02-08T05:57:50.693Z,16.40
2019-02-08T05:58:50.719Z,11.20
2019-02-08T05:59:50.743Z,12.20
2019-02-08T06:00:50.770Z,11.90
2019-02-08T06:01:50.796Z,14.50
2019-02-08T06:02:50.837Z,17.80
2019-02-08T06:03:50.844Z,9.50
2019-02-08T06:04:50.870Z,14.50
2019-02-08T06:05:50.893Z,10.60
2019-02-08T06:06:50.928Z,12.40
2019-02-08T06:07:50.943Z,11.50
2019-02-08T06:08:50.969Z,9.20
2019-02-08T06:09:50.994Z,10.40
2019-02-08T06:10:51.018Z,10.90
2019-02-08T06:11:51.044Z,17.90
2019-02-08T06:12:51.069Z,18.70
2019-02-08T06:13:51.094Z,14.00
2019-02-08T06:14:51.119Z,12.10
2019-02-08T06:15:51.144Z,9.80
2019-02-08T06:16:51.170Z,12.90
2019-02-08T06:17:51.200Z,11.50
2019-02-08T06:18:51.220Z,8.60
2019-02-08T06:19:51.246Z,11.30
2019-02-08T06:20:51.271Z,15.30
2019-02-08T06:21:51.296Z,12.20
2019-02-08T06:22:51.320Z,11.20
2019-02-08T06:23:51.346Z,20.30
2019-02-08T06:24:51.375Z,17.40
2019-02-08T06:25:51.399Z,15.00
2019-02-08T06:26:51.422Z,10.60
2019-02-08T06:27:51.454Z,6.70
2019-02-08T06:28:51.474Z,13.10
2019-02-08T06:29:51.498Z,13.10
2019-02-08T06:30:51.525Z,10.80
2019-02-08T06:31:51.549Z,11.30
2019-02-08T06:32:54.830Z,11.40
2019-02-08T06:33:51.599Z,14.30
2019-02-08T06:34:51.626Z,6.30
2019-02-08T06:35:51.654Z,13.70
2019-02-08T06:36:51.681Z,11.70
2019-02-08T06:37:51.703Z,6.60
2019-02-08T06:38:51.729Z,9.30
2019-02-08T06:39:51.753Z,13.70
2019-02-08T06:40:51.781Z,10.50
2019-02-08T06:41:51.807Z,11.20
2019-02-08T06:42:51.833Z,18.60
2019-02-08T06:43:51.861Z,12.80
2019-02-08T06:44:51.900Z,14.10
2019-02-08T06:45:51.907Z,11.00
2019-02-08T06:46:51.939Z,20.30
2019-02-08T06:47:51.958Z,22.20
2019-02-08T06:48:51.985Z,9.80
2019-02-08T06:49:52.009Z,16.20
2019-02-08T06:50:52.038Z,16.60
2019-02-08T06:51:52.061Z,13.20
2019-02-08T06:52:52.090Z,10.60
2019-02-08T06:53:52.112Z,15.70
2019-02-08T06:54:52.138Z,16.60
2019-02-08T06:55:53.954Z,13.20
2019-02-08T06:56:52.188Z,9.40
2019-02-08T06:57:52.214Z,8.40
2019-02-08T06:58:52.239Z,15.40
2019-02-08T06:59:52.265Z,14.40
2019-02-08T07:00:52.290Z,15.10
2019-02-08T07:01:52.315Z,12.20
2019-02-08T07:02:52.342Z,9.40
2019-02-08T07:03:52.367Z,12.40
2019-02-08T07:04:52.393Z,12.80
2019-02-08T07:05:52.418Z,12.40
2019-02-08T07:06:52.444Z,7.70
2019-02-08T07:07:52.471Z,13.90
2019-02-08T07:08:52.495Z,7.40
2019-02-08T07:09:52.521Z,9.50
2019-02-08T07:10:52.547Z,11.50
2019-02-08T07:11:52.581Z,9.80
2019-02-08T07:12:52.599Z,10.30
2019-02-08T07:13:52.623Z,8.10
2019-02-08T07:14:52.650Z,11.90
2019-02-08T07:15:52.676Z,9.10
2019-02-08T07:16:52.702Z,13.60
2019-02-08T07:17:52.729Z,8.80
2019-02-08T07:18:52.752Z,9.90
2019-02-08T07:19:52.779Z,10.70
2019-02-08T07:20:52.806Z,11.20
2019-02-08T07:21:52.831Z,11.90
2019-02-08T07:22:52.856Z,13.90
2019-02-08T07:23:52.882Z,10.70
2019-02-08T07:24:52.908Z,13.40
2019-02-08T07:25:52.935Z,11.80
2019-02-08T07:26:52.962Z,9.80
2019-02-08T07:27:52.989Z,10.40
2019-02-08T07:28:53.013Z,11.40
2019-02-08T07:29:53.040Z,7.50
2019-02-08T07:30:53.065Z,9.60
2019-02-08T07:31:53.092Z,11.10
2019-02-08T07:32:53.119Z,7.00
2019-02-08T07:33:53.144Z,10.30
2019-02-08T07:34:53.172Z,11.10
2019-02-08T07:35:53.198Z,11.50
2019-02-08T07:36:53.231Z,13.10
2019-02-08T07:37:53.250Z,9.20
2019-02-08T07:38:53.277Z,10.80
2019-02-08T07:39:53.304Z,10.30
2019-02-08T07:40:53.331Z,8.90
2019-02-08T07:41:53.356Z,14.40
2019-02-08T07:42:53.406Z,7.60
2019-02-08T07:43:53.412Z,14.70
2019-02-08T07:44:53.437Z,14.60
2019-02-08T07:45:53.462Z,7.90
2019-02-08T07:46:53.489Z,10.70
2019-02-08T07:47:53.516Z,12.00
2019-02-08T07:48:53.543Z,6.20
2019-02-08T07:49:53.569Z,10.40
2019-02-08T07:50:53.597Z,7.30
2019-02-08T07:51:53.625Z,8.70
2019-02-08T07:52:53.651Z,11.70
2019-02-08T07:53:53.679Z,9.00
2019-02-08T07:54:53.705Z,9.90
2019-02-08T07:55:53.733Z,7.00
2019-02-08T07:56:53.761Z,9.00
2019-02-08T07:57:53.788Z,9.30
2019-02-08T07:58:53.815Z,12.50
2019-02-08T07:59:53.844Z,12.10
2019-02-08T08:00:53.871Z,13.40
2019-02-08T08:01:53.899Z,8.60
2019-02-08T08:02:53.927Z,8.90
2019-02-08T08:04:00.995Z,6.90
2019-02-08T08:04:53.983Z,13.40
2019-02-08T08:05:54.011Z,10.50
2019-02-08T08:06:54.043Z,7.00
2019-02-08T08:07:54.067Z,5.80
2019-02-08T08:08:54.096Z,12.10
2019-02-08T08:09:54.126Z,9.10
2019-02-08T08:10:54.153Z,12.20
2019-02-08T08:11:54.183Z,11.50
2019-02-08T08:12:54.213Z,22.10
2019-02-08T08:13:54.243Z,12.90
2019-02-08T08:14:54.270Z,9.80
2019-02-08T08:15:54.299Z,12.40
2019-02-08T08:16:54.330Z,5.30
2019-02-08T08:17:54.358Z,18.70
2019-02-08T08:18:54.388Z,7.90
2019-02-08T08:19:54.418Z,9.00
2019-02-08T08:20:54.448Z,12.20
2019-02-08T08:21:54.477Z,16.40
2019-02-08T08:22:54.509Z,14.50
2019-02-08T08:23:54.538Z,13.40
2019-02-08T08:24:54.569Z,12.00
2019-02-08T08:25:54.598Z,7.40
2019-02-08T08:26:54.628Z,9.10
2019-02-08T08:27:54.658Z,10.80
2019-02-08T08:28:54.689Z,11.10
2019-02-08T08:29:54.719Z,14.00
2019-02-08T08:30:54.751Z,10.10
2019-02-08T08:31:54.780Z,9.50
2019-02-08T08:32:54.810Z,11.50
2019-02-08T08:33:54.841Z,6.00
2019-02-08T08:34:54.871Z,10.10
2019-02-08T08:35:57.508Z,13.40
2019-02-08T08:36:54.936Z,9.30
2019-02-08T08:37:54.963Z,11.80
2019-02-08T08:38:54.995Z,9.80
2019-02-08T08:39:55.026Z,10.80
2019-02-08T08:40:55.058Z,8.00
2019-02-08T08:41:55.089Z,9.10
2019-02-08T08:42:55.122Z,12.30
2019-02-08T08:43:55.154Z,15.40
2019-02-08T08:44:55.186Z,11.60
2019-02-08T08:45:55.216Z,7.90
2019-02-08T08:46:55.250Z,11.90
2019-02-08T08:47:55.283Z,11.00
2019-02-08T08:48:55.315Z,7.50
2019-02-08T08:49:55.347Z,11.30
2019-02-08T08:50:55.385Z,11.60
2019-02-08T08:51:55.414Z,10.50
2019-02-08T08:52:55.447Z,8.10
2019-02-08T08:53:55.479Z,11.90
2019-02-08T08:54:55.513Z,9.80
2019-02-08T08:55:55.546Z,8.60
2019-02-08T08:56:55.581Z,10.70
2019-02-08T08:57:55.615Z,6.10
2019-02-08T08:58:55.650Z,8.70
2019-02-08T08:59:55.682Z,9.60
2019-02-08T09:00:55.716Z,9.70
2019-02-08T09:01:55.749Z,8.10
2019-02-08T09:02:55.785Z,6.80
2019-02-08T09:03:55.819Z,11.10
2019-02-08T09:04:55.853Z,9.60
2019-02-08T09:05:55.887Z,11.90
2019-02-08T09:06:55.921Z,10.00
2019-02-08T09:07:55.956Z,15.70
2019-02-08T09:08:55.990Z,9.40
2019-02-08T09:09:56.024Z,12.20
2019-02-08T09:10:56.058Z,10.20
2019-02-08T09:11:56.093Z,8.50
2019-02-08T09:12:56.127Z,7.60
2019-02-08T09:13:56.161Z,12.40
2019-02-08T09:14:56.195Z,12.00
2019-02-08T09:15:56.231Z,7.60
2019-02-08T09:16:56.264Z,8.60
2019-02-08T09:17:56.297Z,7.10
2019-02-08T09:18:56.333Z,6.50
2019-02-08T09:19:56.368Z,5.40
2019-02-08T09:20:56.401Z,14.00
2019-02-08T09:21:56.434Z,6.70
2019-02-08T09:22:56.468Z,8.90
2019-02-08T09:23:56.505Z,4.80
2019-02-08T09:24:56.538Z,7.20
2019-02-08T09:25:56.571Z,9.80
2019-02-08T09:26:56.605Z,8.60
2019-02-08T09:27:56.639Z,10.00
2019-02-08T09:28:56.675Z,13.80
2019-02-08T09:29:56.707Z,9.60
2019-02-08T09:30:56.741Z,8.40
2019-02-08T09:31:56.776Z,16.00
2019-02-08T09:32:56.811Z,10.10
2019-02-08T09:33:56.844Z,5.20
2019-02-08T09:34:56.877Z,8.60
2019-02-08T09:35:56.912Z,8.30
2019-02-08T09:36:56.948Z,6.90
2019-02-08T09:37:56.980Z,5.80
2019-02-08T09:38:57.015Z,6.40
2019-02-08T09:39:57.052Z,6.20
2019-02-08T09:40:57.085Z,9.40
2019-02-08T09:41:57.119Z,9.00
2019-02-08T09:42:57.155Z,10.60
2019-02-08T09:43:57.190Z,6.00
2019-02-08T09:44:57.227Z,12.30
2019-02-08T09:45:57.261Z,11.50
2019-02-08T09:46:57.299Z,6.60
2019-02-08T09:47:57.335Z,7.50
2019-02-08T09:48:57.371Z,6.30
2019-02-08T09:49:57.407Z,6.70
2019-02-08T09:50:57.443Z,5.50
2019-02-08T09:51:57.481Z,7.00
2019-02-08T09:52:57.518Z,8.10
2019-02-08T09:53:57.554Z,4.90
2019-02-08T09:54:57.594Z,11.50
2019-02-08T09:55:59.684Z,6.60
2019-02-08T09:56:57.669Z,7.00
2019-02-08T09:57:57.707Z,4.90
2019-02-08T09:58:57.743Z,6.90
2019-02-08T09:59:57.781Z,9.40
2019-02-08T10:00:57.818Z,7.00
2019-02-08T10:01:57.857Z,5.90
2019-02-08T10:02:57.894Z,9.60
2019-02-08T10:03:57.932Z,8.00
2019-02-08T10:05:00.825Z,5.50
2019-02-08T10:05:58.009Z,4.80
2019-02-08T10:06:58.045Z,5.50
2019-02-08T10:07:58.085Z,10.30
2019-02-08T10:08:58.121Z,12.40
2019-02-08T10:09:58.161Z,6.80
2019-02-08T10:10:58.200Z,6.50
2019-02-08T10:11:58.236Z,8.20
2019-02-08T10:12:58.273Z,6.60
2019-02-08T10:13:58.312Z,9.00
2019-02-08T10:14:58.349Z,6.00
2019-02-08T10:15:58.388Z,8.30
2019-02-08T10:16:58.426Z,6.00
2019-02-08T10:17:58.463Z,9.50
2019-02-08T10:18:58.503Z,6.00
2019-02-08T10:19:58.542Z,8.90
2019-02-08T10:20:58.579Z,3.80
2019-02-08T10:21:58.617Z,5.60
2019-02-08T10:22:58.656Z,6.40
2019-02-08T10:23:58.695Z,6.60
2019-02-08T10:24:58.734Z,5.40
2019-02-08T10:26:05.285Z,7.30
2019-02-08T10:26:58.810Z,8.00
2019-02-08T10:27:58.849Z,5.20
2019-02-08T10:28:58.889Z,3.70
2019-02-08T10:29:58.928Z,5.20
2019-02-08T10:30:58.966Z,5.40
2019-02-08T10:31:59.006Z,3.80
2019-02-08T10:32:59.064Z,7.10
2019-02-08T10:33:59.082Z,8.30
2019-02-08T10:34:59.122Z,12.40
2019-02-08T10:35:59.161Z,8.30
2019-02-08T10:36:59.201Z,7.70
2019-02-08T10:37:59.240Z,4.80
2019-02-08T10:38:59.282Z,5.90
2019-02-08T10:39:59.318Z,5.50
2019-02-08T10:40:59.357Z,5.60
2019-02-08T10:41:59.396Z,5.50
2019-02-08T10:42:59.436Z,8.70
2019-02-08T10:43:59.476Z,3.60
2019-02-08T10:44:59.515Z,6.10
2019-02-08T10:45:59.554Z,6.80
2019-02-08T10:46:59.594Z,5.70
2019-02-08T10:47:59.633Z,6.00
2019-02-08T10:48:59.669Z,3.60
2019-02-08T10:49:59.707Z,8.20
2019-02-08T10:50:59.745Z,5.10
2019-02-08T10:51:59.782Z,5.60
2019-02-08T10:52:59.821Z,5.30
2019-02-08T10:53:59.862Z,5.20
2019-02-08T10:54:59.897Z,7.80
2019-02-08T10:55:59.933Z,5.40
2019-02-08T10:56:59.974Z,4.00
2019-02-08T10:58:00.008Z,4.80
2019-02-08T10:59:00.045Z,9.70
2019-02-08T11:00:00.198Z,5.10
2019-02-08T11:01:00.120Z,8.10
2019-02-08T11:02:00.155Z,10.10
2019-02-08T11:03:00.193Z,7.10
2019-02-08T11:04:00.231Z,9.90
2019-02-08T11:05:00.280Z,5.50
2019-02-08T11:06:00.304Z,5.90
2019-02-08T11:07:00.347Z,6.70
2019-02-08T11:08:00.379Z,9.10
2019-02-08T11:09:00.414Z,7.60
2019-02-08T11:10:00.450Z,6.70
2019-02-08T11:11:00.490Z,7.00
2019-02-08T11:12:00.525Z,8.30
2019-02-08T11:13:00.561Z,8.70
2019-02-08T11:14:00.600Z,7.60
2019-02-08T11:15:00.634Z,7.50
2019-02-08T11:16:00.671Z,5.60
2019-02-08T11:17:00.711Z,8.70
2019-02-08T11:18:00.747Z,6.40
2019-02-08T11:19:00.781Z,11.90
2019-02-08T11:20:00.818Z,8.10
2019-02-08T11:21:00.855Z,6.00
2019-02-08T11:22:00.942Z,6.00
2019-02-08T11:23:00.929Z,6.40
2019-02-08T11:24:00.967Z,10.40
2019-02-08T11:25:01.003Z,8.90
2019-02-08T11:26:01.040Z,6.60
2019-02-08T11:27:01.078Z,8.90
2019-02-08T11:28:01.115Z,6.20
2019-02-08T11:29:01.155Z,9.30
2019-02-08T11:30:01.189Z,7.00
2019-02-08T11:31:01.227Z,7.40
2019-02-08T11:32:01.266Z,7.80
2019-02-08T11:33:01.302Z,7.60
2019-02-08T11:34:01.341Z,7.50
2019-02-08T11:35:01.376Z,3.90
2019-02-08T11:36:01.413Z,8.80
2019-02-08T11:37:01.451Z,7.60
2019-02-08T11:38:01.487Z,8.90
2019-02-08T11:39:01.575Z,6.20
2019-02-08T11:40:01.562Z,6.20
2019-02-08T11:41:01.600Z,6.40
2019-02-08T11:42:01.637Z,6.60
2019-02-08T11:43:01.675Z,10.20
2019-02-08T11:44:01.712Z,10.80
2019-02-08T11:45:01.750Z,4.40
2019-02-08T11:46:01.787Z,9.10
2019-02-08T11:47:01.825Z,7.40
2019-02-08T11:48:01.863Z,4.70
2019-02-08T11:49:01.905Z,5.30
2019-02-08T11:50:01.940Z,6.00
2019-02-08T11:51:01.978Z,3.10
2019-02-08T11:52:02.016Z,4.20
2019-02-08T11:53:02.054Z,3.30
2019-02-08T11:54:02.091Z,5.50
2019-02-08T11:55:02.130Z,4.50
2019-02-08T11:56:02.167Z,5.50
2019-02-08T11:57:02.206Z,7.10
2019-02-08T11:58:02.244Z,5.60
2019-02-08T11:59:02.281Z,6.10
2019-02-08T12:00:02.321Z,5.00
2019-02-08T12:01:02.358Z,9.10
2019-02-08T12:02:02.395Z,6.80
2019-02-08T12:03:02.434Z,4.70
2019-02-08T12:04:02.476Z,5.40
2019-02-08T12:05:02.513Z,7.10
2019-02-08T12:06:02.550Z,5.00
2019-02-08T12:07:02.586Z,6.50
2019-02-08T12:08:02.625Z,5.90
2019-02-08T12:09:02.664Z,4.90
2019-02-08T12:10:02.803Z,5.40
2019-02-08T12:11:02.740Z,4.30
2019-02-08T12:12:02.783Z,5.70
2019-02-08T12:13:02.816Z,4.70
2019-02-08T12:14:02.859Z,8.10
2019-02-08T12:15:02.893Z,4.80
2019-02-08T12:16:02.932Z,5.70
2019-02-08T12:17:02.973Z,6.30
2019-02-08T12:18:03.008Z,10.50
2019-02-08T12:19:03.051Z,7.10
2019-02-08T12:20:03.086Z,5.30
2019-02-08T12:21:03.127Z,4.90
2019-02-08T12:22:03.165Z,4.60
2019-02-08T12:23:03.203Z,6.90
2019-02-08T12:24:03.242Z,3.70
2019-02-08T12:25:03.331Z,4.30
2019-02-08T12:26:03.321Z,6.40
2019-02-08T12:27:03.361Z,7.70
2019-02-08T12:28:03.400Z,4.10
2019-02-08T12:29:03.440Z,4.20
2019-02-08T12:30:03.476Z,2.70
2019-02-08T12:31:03.516Z,13.50
2019-02-08T12:32:03.556Z,8.00
2019-02-08T12:33:03.595Z,8.50
2019-02-08T12:34:03.634Z,8.40
2019-02-08T12:35:03.673Z,4.00
2019-02-08T12:36:03.712Z,5.40
2019-02-08T12:37:03.757Z,6.20
2019-02-08T12:38:03.794Z,6.50
2019-02-08T12:39:05.024Z,5.60
2019-02-08T12:40:03.875Z,3.40
2019-02-08T12:41:09.611Z,3.90
2019-02-08T12:42:03.948Z,3.30
2019-02-08T12:43:03.991Z,3.90
2019-02-08T12:44:04.029Z,8.00
2019-02-08T12:45:04.070Z,4.10
2019-02-08T12:46:04.110Z,6.00
2019-02-08T12:47:04.151Z,4.20
2019-02-08T12:48:04.192Z,6.10
2019-02-08T12:49:04.233Z,9.60
2019-02-08T12:50:04.276Z,6.30
2019-02-08T12:51:04.317Z,5.00
2019-02-08T12:52:04.357Z,6.00
2019-02-08T12:53:04.403Z,5.80
2019-02-08T12:54:04.454Z,8.60
2019-02-08T12:55:04.482Z,4.10
2019-02-08T12:56:04.524Z,4.30
2019-02-08T12:57:04.567Z,6.00
2019-02-08T12:58:04.608Z,6.90
2019-02-08T12:59:04.649Z,5.50
2019-02-08T13:00:04.693Z,4.80
2019-02-08T13:01:04.734Z,3.90
2019-02-08T13:02:04.775Z,7.40